createdAt,value
2023-01-07T00:01:51.021Z,8.50
2023-01-07T00:04:18.100Z,8.50
2023-01-07T00:06:47.466Z,8.50
2023-01-07T00:09:18.765Z,8.50
2023-01-07T00:11:46.298Z,8.50
2023-01-07T00:14:14.506Z,8.50
2023-01-07T00:16:42.644Z,8.50
2023-01-07T00:19:15.084Z,8.50
2023-01-07T00:21:43.119Z,8.50
2023-01-07T00:24:11.554Z,8.50
2023-01-07T00:26:40.193Z,8.50
2023-01-07T00:29:08.624Z,8.50
2023-01-07T00:31:39.089Z,8.50
2023-01-07T00:34:07.306Z,8.50
2023-01-07T00:36:39.238Z,8.50
2023-01-07T00:39:17.608Z,8.50
2023-01-07T00:42:05.715Z,8.50
2023-01-07T00:44:33.567Z,8.50
2023-01-07T00:47:01.403Z,8.50
2023-01-07T00:49:28.943Z,8.50
2023-01-07T00:51:55.991Z,8.50
2023-01-07T00:54:23.841Z,8.50
2023-01-07T00:56:50.825Z,8.50
2023-01-07T00:59:17.821Z,8.50
2023-01-07T01:01:44.920Z,8.40
2023-01-07T01:04:12.092Z,8.50
2023-01-07T01:06:39.075Z,8.50
2023-01-07T01:09:06.077Z,8.50
2023-01-07T01:11:33.062Z,8.50
2023-01-07T01:14:00.057Z,8.50
2023-01-07T01:16:27.170Z,8.50
2023-01-07T01:18:54.210Z,8.50
2023-01-07T01:21:21.219Z,8.50
2023-01-07T01:23:48.340Z,8.50
2023-01-07T01:26:17.756Z,8.50
2023-01-07T01:28:45.737Z,8.40
2023-01-07T01:31:13.641Z,8.40
2023-01-07T01:33:40.916Z,8.40
2023-01-07T01:36:11.174Z,8.40
2023-01-07T01:38:38.651Z,8.40
2023-01-07T01:41:07.231Z,8.40
2023-01-07T01:43:37.968Z,8.40
2023-01-07T01:46:17.446Z,8.40
2023-01-07T01:48:53.552Z,8.40
2023-01-07T01:51:25.183Z,8.40
2023-01-07T01:53:53.157Z,8.40
2023-01-07T01:56:30.345Z,8.30
2023-01-07T01:59:08.810Z,8.30
2023-01-07T02:01:37.230Z,8.30
2023-01-07T02:04:18.047Z,8.30
2023-01-07T02:07:16.904Z,8.30
2023-01-07T02:09:44.485Z,8.30
2023-01-07T02:12:37.952Z,8.30
2023-01-07T02:15:20.167Z,8.40
2023-01-07T02:18:31.423Z,8.40
2023-01-07T02:21:39.384Z,8.40
2023-01-07T02:24:28.616Z,8.50
2023-01-07T02:27:17.072Z,8.50
2023-01-07T02:30:13.758Z,8.50
2023-01-07T02:33:37.163Z,8.40
2023-01-07T02:36:50.066Z,8.40
2023-01-07T02:40:08.229Z,8.40
2023-01-07T02:43:06.205Z,8.40
2023-01-07T02:45:52.962Z,8.40
2023-01-07T02:48:22.155Z,8.30
2023-01-07T02:50:49.115Z,8.30
2023-01-07T02:53:20.111Z,8.40
2023-01-07T02:56:24.736Z,8.40
2023-01-07T02:59:07.879Z,8.40
2023-01-07T03:02:26.484Z,8.40
2023-01-07T03:05:18.923Z,8.50
2023-01-07T03:08:12.636Z,8.50
2023-01-07T03:11:00.822Z,8.50
2023-01-07T03:13:42.036Z,8.50
2023-01-07T03:16:13.764Z,8.50
2023-01-07T03:18:56.676Z,8.50
2023-01-07T03:21:26.421Z,8.50
2023-01-07T03:23:57.506Z,8.40
2023-01-07T03:26:33.080Z,8.40
2023-01-07T03:29:03.224Z,8.40
2023-01-07T03:31:31.319Z,8.30
2023-01-07T03:34:10.796Z,8.30
2023-01-07T03:36:43.438Z,8.40
2023-01-07T03:39:12.715Z,8.40
2023-01-07T03:42:06.876Z,8.40
2023-01-07T03:44:33.870Z,8.40
2023-01-07T03:47:01.563Z,8.40
2023-01-07T03:49:28.633Z,8.50
2023-01-07T03:51:55.780Z,8.50
2023-01-07T03:54:23.958Z,8.50
2023-01-07T03:56:50.955Z,8.50
2023-01-07T03:59:18.178Z,8.50
2023-01-07T04:01:45.291Z,8.40
2023-01-07T04:04:12.344Z,8.40
2023-01-07T04:06:39.390Z,8.40
2023-01-07T04:09:06.546Z,8.50
2023-01-07T04:11:33.653Z,8.50
2023-01-07T04:14:00.940Z,8.50
2023-01-07T04:16:28.292Z,8.50
2023-01-07T04:18:55.575Z,8.50
2023-01-07T04:21:22.643Z,8.50
2023-01-07T04:23:49.675Z,8.50
2023-01-07T04:26:16.687Z,8.50
2023-01-07T04:28:43.687Z,8.50
2023-01-07T04:31:10.916Z,8.50
2023-01-07T04:33:37.991Z,8.50
2023-01-07T04:36:05.468Z,8.50
2023-01-07T04:38:32.452Z,8.40
2023-01-07T04:40:59.496Z,8.40
2023-01-07T04:43:26.482Z,8.40
2023-01-07T04:45:53.550Z,8.40
2023-01-07T04:48:20.524Z,8.30
2023-01-07T04:50:48.256Z,8.30
2023-01-07T04:53:16.358Z,8.30
2023-01-07T04:55:44.989Z,8.30
2023-01-07T04:58:13.253Z,8.30
2023-01-07T05:00:40.197Z,8.30
2023-01-07T05:03:07.326Z,8.30
2023-01-07T05:05:34.342Z,8.30
2023-01-07T05:08:01.344Z,8.30
2023-01-07T05:10:28.392Z,8.30
2023-01-07T05:12:55.392Z,8.30
2023-01-07T05:15:22.400Z,8.30
2023-01-07T05:17:49.340Z,8.30
2023-01-07T05:20:16.425Z,8.30
2023-01-07T05:22:43.463Z,8.40
2023-01-07T05:25:10.611Z,8.30
2023-01-07T05:27:37.675Z,8.30
2023-01-07T05:30:05.615Z,8.30
2023-01-07T05:32:32.599Z,8.30
2023-01-07T05:34:59.543Z,8.30
2023-01-07T05:37:26.511Z,8.30
2023-01-07T05:39:53.450Z,8.30
2023-01-07T05:42:20.461Z,8.30
2023-01-07T05:44:47.385Z,8.20
2023-01-07T05:47:14.303Z,8.30
2023-01-07T05:49:44.077Z,8.30
2023-01-07T05:52:11.060Z,8.30
2023-01-07T05:54:38.108Z,8.30
2023-01-07T05:57:05.109Z,8.30
2023-01-07T05:59:34.783Z,8.30
2023-01-07T06:02:02.698Z,8.30
2023-01-07T06:04:30.013Z,8.20
2023-01-07T06:06:57.010Z,8.20
2023-01-07T06:09:24.022Z,8.20
2023-01-07T06:11:51.027Z,8.20
2023-01-07T06:14:18.261Z,8.20
2023-01-07T06:16:45.226Z,8.20
2023-01-07T06:19:12.256Z,8.20
2023-01-07T06:21:39.321Z,8.20
2023-01-07T06:24:07.313Z,8.20
2023-01-07T06:26:34.365Z,8.20
2023-01-07T06:29:01.367Z,8.20
2023-01-07T06:31:28.384Z,8.20
2023-01-07T06:33:55.570Z,8.20
2023-01-07T06:36:22.644Z,8.20
2023-01-07T06:38:49.608Z,8.20
2023-01-07T06:41:16.600Z,8.20
2023-01-07T06:43:43.548Z,8.20
2023-01-07T06:46:10.821Z,8.20
2023-01-07T06:48:37.756Z,8.20
2023-01-07T06:51:05.094Z,8.10
2023-01-07T06:53:32.233Z,8.10
2023-01-07T06:55:59.184Z,8.10
2023-01-07T06:58:26.153Z,8.10
2023-01-07T07:00:53.121Z,8.10
2023-01-07T07:03:20.092Z,8.10
2023-01-07T07:05:47.201Z,8.10
2023-01-07T07:08:14.172Z,8.10
2023-01-07T07:10:41.141Z,8.10
2023-01-07T07:13:08.492Z,8.10
2023-01-07T07:15:35.489Z,8.10
2023-01-07T07:18:02.550Z,8.10
2023-01-07T07:20:29.510Z,8.00
2023-01-07T07:22:56.552Z,8.10
2023-01-07T07:25:23.543Z,8.10
2023-01-07T07:27:50.692Z,8.10
2023-01-07T07:30:17.877Z,8.00
2023-01-07T07:32:45.048Z,8.00
2023-01-07T07:35:12.602Z,8.00
2023-01-07T07:37:39.981Z,8.10
2023-01-07T07:40:09.187Z,8.10
2023-01-07T07:43:09.316Z,8.10
2023-01-07T07:45:24.588Z,8.10
2023-01-07T07:47:51.650Z,8.10
2023-01-07T07:50:18.726Z,8.10
2023-01-07T07:52:46.377Z,8.10
2023-01-07T07:55:20.794Z,8.10
2023-01-07T07:57:55.529Z,8.10
2023-01-07T08:00:23.085Z,8.10
2023-01-07T08:02:50.289Z,8.10
2023-01-07T08:05:17.433Z,8.10
2023-01-07T08:07:44.528Z,8.10
2023-01-07T08:10:11.585Z,8.10
2023-01-07T08:12:39.336Z,8.10
2023-01-07T08:15:08.186Z,8.20
2023-01-07T08:17:36.535Z,8.20
2023-01-07T08:20:07.712Z,8.20
2023-01-07T08:22:35.003Z,8.20
2023-01-07T08:25:02.420Z,8.20
2023-01-07T08:27:29.730Z,8.20
2023-01-07T08:29:56.956Z,8.20
2023-01-07T08:32:24.157Z,8.30
2023-01-07T08:34:51.187Z,8.30
2023-01-07T08:37:18.190Z,8.30
2023-01-07T08:39:45.197Z,8.30
2023-01-07T08:42:12.248Z,8.30
2023-01-07T08:44:39.505Z,8.30
2023-01-07T08:47:06.499Z,8.30
2023-01-07T08:49:33.586Z,8.30
2023-01-07T08:52:00.657Z,8.40
2023-01-07T08:54:27.937Z,8.40
2023-01-07T08:56:54.900Z,8.40
2023-01-07T08:59:21.830Z,8.40
2023-01-07T09:01:48.995Z,8.50
2023-01-07T09:04:16.086Z,8.60
2023-01-07T09:06:43.139Z,8.60
2023-01-07T09:09:11.999Z,8.70
2023-01-07T09:11:39.118Z,8.70
2023-01-07T09:14:06.206Z,8.80
2023-01-07T09:16:33.300Z,8.90
2023-01-07T09:19:00.392Z,8.90
2023-01-07T09:21:27.370Z,8.90
2023-01-07T09:23:54.321Z,8.90
2023-01-07T09:26:21.284Z,9.00
2023-01-07T09:28:48.210Z,9.00
2023-01-07T09:34:01.796Z,9.10
2023-01-07T09:36:29.156Z,9.10
2023-01-07T09:38:56.236Z,9.20
2023-01-07T09:41:44.644Z,9.10
2023-01-07T09:44:48.771Z,8.80
2023-01-07T09:47:19.625Z,9.20
2023-01-07T09:49:51.246Z,9.20
2023-01-07T09:52:22.846Z,9.30
2023-01-07T09:54:58.744Z,9.40
2023-01-07T09:57:27.769Z,9.40
2023-01-07T09:59:55.392Z,9.40
2023-01-07T10:02:40.624Z,9.40
2023-01-07T10:05:29.155Z,9.50
2023-01-07T10:08:33.036Z,9.50
2023-01-07T10:11:28.925Z,9.50
2023-01-07T10:14:30.808Z,9.60
2023-01-07T10:17:25.952Z,9.60
2023-01-07T10:20:33.847Z,9.60
2023-01-07T10:23:32.087Z,9.60
2023-01-07T10:26:03.259Z,9.60
2023-01-07T10:28:47.776Z,9.70
2023-01-07T10:31:33.352Z,10.10
2023-01-07T10:34:57.029Z,9.60
2023-01-07T10:37:46.474Z,9.70
2023-01-07T10:40:39.094Z,9.60
2023-01-07T10:43:37.673Z,9.80
2023-01-07T10:46:42.165Z,9.80
2023-01-07T10:49:35.354Z,9.80
2023-01-07T10:52:23.576Z,9.70
2023-01-07T10:55:20.421Z,9.80
2023-01-07T10:57:49.058Z,9.90
2023-01-07T11:00:17.959Z,9.90
2023-01-07T11:03:00.734Z,9.90
2023-01-07T11:05:38.118Z,9.90
2023-01-07T11:08:32.401Z,9.90
2023-01-07T11:11:04.338Z,9.90
2023-01-07T11:13:34.214Z,9.90
2023-01-07T11:16:26.540Z,10.00
2023-01-07T11:19:01.509Z,10.00
2023-01-07T11:21:44.079Z,9.90
2023-01-07T11:24:35.723Z,9.90
2023-01-07T11:27:19.356Z,10.00
2023-01-07T11:30:00.873Z,9.90
2023-01-07T11:32:32.103Z,10.80
2023-01-07T11:35:06.388Z,10.00
2023-01-07T11:37:49.640Z,10.00
2023-01-07T11:40:20.743Z,10.80
2023-01-07T11:43:05.539Z,10.00
2023-01-07T11:46:19.938Z,10.00
2023-01-07T11:49:01.707Z,10.10
2023-01-07T11:51:42.086Z,10.20
2023-01-07T11:54:27.452Z,10.20
2023-01-07T11:57:22.098Z,10.20
2023-01-07T12:00:05.940Z,10.20
2023-01-07T12:02:33.188Z,10.30
2023-01-07T12:05:29.632Z,10.30
2023-01-07T12:07:59.193Z,10.30
2023-01-07T12:10:32.597Z,10.20
2023-01-07T12:13:16.238Z,10.40
2023-01-07T12:16:06.109Z,10.30
2023-01-07T12:18:55.620Z,10.30
2023-01-07T12:21:33.272Z,10.40
2023-01-07T12:24:44.314Z,10.40
2023-01-07T12:27:35.761Z,10.50
2023-01-07T12:30:38.092Z,10.50
2023-01-07T12:34:00.678Z,10.60
2023-01-07T12:37:08.151Z,10.60
2023-01-07T12:39:41.533Z,10.70
2023-01-07T12:44:56.026Z,10.80
2023-01-07T12:48:00.283Z,10.80
2023-01-07T12:50:46.325Z,11.00
2023-01-07T12:53:25.547Z,11.20
2023-01-07T12:56:00.177Z,10.70
2023-01-07T12:58:52.664Z,11.10
2023-01-07T13:01:43.130Z,11.10
2023-01-07T13:04:42.737Z,11.30
2023-01-07T13:07:35.585Z,11.30
2023-01-07T13:10:23.912Z,11.50
2023-01-07T13:12:59.711Z,11.60
2023-01-07T13:15:34.246Z,11.60
2023-01-07T13:18:21.445Z,11.70
2023-01-07T13:21:08.482Z,11.70
2023-01-07T13:24:19.393Z,11.50
2023-01-07T13:27:09.786Z,11.40
2023-01-07T13:30:00.750Z,11.40
2023-01-07T13:32:58.054Z,11.30
2023-01-07T13:35:44.100Z,11.20
2023-01-07T13:38:35.600Z,11.30
2023-01-07T13:41:14.741Z,11.20
2023-01-07T13:43:58.197Z,11.20
2023-01-07T13:46:35.712Z,11.40
2023-01-07T13:49:03.329Z,11.60
2023-01-07T13:51:37.341Z,11.80
2023-01-07T13:54:05.036Z,11.90
2023-01-07T13:56:36.193Z,11.90
2023-01-07T13:59:04.185Z,12.00
2023-01-07T14:01:33.737Z,11.80
2023-01-07T14:04:03.969Z,11.90
2023-01-07T14:06:38.750Z,11.70
2023-01-07T14:09:11.161Z,11.50
2023-01-07T14:11:42.371Z,11.70
2023-01-07T14:14:35.399Z,11.70
2023-01-07T14:18:00.411Z,11.90
2023-01-07T14:20:39.779Z,11.80
2023-01-07T14:23:25.385Z,11.60
2023-01-07T14:26:13.804Z,11.60
2023-01-07T14:29:04.983Z,11.60
2023-01-07T14:31:32.275Z,11.60
2023-01-07T14:34:09.040Z,11.60
2023-01-07T14:37:09.115Z,11.50
2023-01-07T14:39:38.984Z,11.50
2023-01-07T14:42:20.969Z,11.50
2023-01-07T14:44:51.825Z,11.60
2023-01-07T14:47:43.143Z,11.50
2023-01-07T14:50:37.948Z,11.40
2023-01-07T14:53:22.177Z,11.40
2023-01-07T14:56:26.871Z,11.30
2023-01-07T14:59:20.724Z,11.30
2023-01-07T15:02:41.470Z,11.10
2023-01-07T15:05:51.557Z,11.00
2023-01-07T15:08:41.431Z,11.00
2023-01-07T15:11:34.517Z,11.00
2023-01-07T15:14:28.619Z,11.00
2023-01-07T15:16:56.452Z,10.80
2023-01-07T15:19:23.638Z,10.60
2023-01-07T15:22:08.405Z,10.50
2023-01-07T15:24:55.848Z,10.40
2023-01-07T15:27:39.468Z,10.30
2023-01-07T15:30:43.264Z,10.20
2023-01-07T15:33:53.099Z,10.20
2023-01-07T15:36:20.390Z,10.10
2023-01-07T15:38:52.958Z,10.00
2023-01-07T15:41:38.388Z,10.30
2023-01-07T15:44:16.645Z,10.60
2023-01-07T15:46:44.249Z,10.20
2023-01-07T15:49:20.742Z,9.80
2023-01-07T15:51:57.351Z,10.20
2023-01-07T15:54:39.746Z,10.20
2023-01-07T15:57:28.233Z,10.10
2023-01-07T15:59:56.613Z,9.70
2023-01-07T16:02:27.674Z,9.50
2023-01-07T16:04:59.645Z,9.40
2023-01-07T16:07:48.235Z,9.30
2023-01-07T16:10:27.301Z,9.30
2023-01-07T16:13:06.904Z,9.10
2023-01-07T16:15:38.496Z,9.10
2023-01-07T16:18:19.217Z,9.10
2023-01-07T16:20:57.907Z,9.00
2023-01-07T16:23:46.390Z,9.00
2023-01-07T16:26:27.286Z,9.00
2023-01-07T16:29:02.708Z,9.00
2023-01-07T16:31:30.948Z,8.90
2023-01-07T16:34:00.150Z,8.80
2023-01-07T16:36:37.676Z,8.80
2023-01-07T16:39:17.677Z,8.70
2023-01-07T16:41:44.950Z,8.70
2023-01-07T16:44:56.800Z,8.70
2023-01-07T16:47:33.069Z,8.70
2023-01-07T16:50:15.221Z,8.70
2023-01-07T16:52:57.632Z,8.50
2023-01-07T16:56:03.508Z,8.50
2023-01-07T16:58:38.374Z,8.40
2023-01-07T17:01:06.801Z,8.40
2023-01-07T17:03:47.958Z,8.40
2023-01-07T17:06:23.132Z,8.30
2023-01-07T17:08:53.466Z,8.10
2023-01-07T17:11:28.099Z,8.00
2023-01-07T17:13:55.190Z,7.90
2023-01-07T17:16:42.615Z,7.90
2023-01-07T17:19:27.995Z,7.80
2023-01-07T17:22:05.851Z,7.90
2023-01-07T17:24:47.523Z,7.90
2023-01-07T17:27:28.890Z,7.80
2023-01-07T17:29:56.688Z,7.70
2023-01-07T17:32:24.449Z,7.60
2023-01-07T17:34:52.089Z,7.60
2023-01-07T17:37:19.287Z,7.40
2023-01-07T17:39:46.553Z,7.30
2023-01-07T17:42:52.342Z,7.40
2023-01-07T17:45:20.951Z,7.30
2023-01-07T17:47:49.727Z,7.30
2023-01-07T17:50:19.712Z,7.30
2023-01-07T17:52:50.203Z,7.00
2023-01-07T17:55:26.359Z,7.00
2023-01-07T17:57:53.675Z,6.90
2023-01-07T18:00:25.814Z,6.60
2023-01-07T18:02:52.969Z,6.50
2023-01-07T18:05:23.351Z,6.40
2023-01-07T18:07:52.679Z,6.40
2023-01-07T18:10:29.137Z,6.40
2023-01-07T18:12:56.120Z,6.30
2023-01-07T18:15:26.269Z,6.30
2023-01-07T18:17:54.112Z,6.40
2023-01-07T18:20:22.530Z,6.10
2023-01-07T18:22:50.617Z,6.00
2023-01-07T18:25:21.757Z,6.10
2023-01-07T18:27:53.108Z,6.00
2023-01-07T18:30:22.259Z,5.70
2023-01-07T18:32:53.196Z,5.80
2023-01-07T18:35:22.891Z,5.80
2023-01-07T18:37:50.894Z,5.90
2023-01-07T18:40:19.043Z,5.90
2023-01-07T18:42:46.233Z,5.90
2023-01-07T18:45:14.079Z,6.00
2023-01-07T18:47:43.101Z,5.90
2023-01-07T18:50:10.287Z,5.80
2023-01-07T18:52:42.180Z,5.80
2023-01-07T18:55:10.927Z,5.80
2023-01-07T18:57:38.194Z,5.70
2023-01-07T19:00:06.983Z,6.70
2023-01-07T19:02:34.705Z,5.90
2023-01-07T19:05:02.178Z,5.80
2023-01-07T19:07:30.862Z,5.80
2023-01-07T19:09:58.022Z,5.80
2023-01-07T19:12:25.071Z,5.70
2023-01-07T19:14:52.104Z,5.60
2023-01-07T19:17:19.285Z,5.70
2023-01-07T19:19:48.624Z,5.90
2023-01-07T19:22:16.647Z,5.80
2023-01-07T19:24:44.595Z,5.80
2023-01-07T19:27:12.791Z,5.70
2023-01-07T19:29:39.838Z,6.00
2023-01-07T19:32:07.141Z,5.90
2023-01-07T19:34:34.251Z,5.80
2023-01-07T19:37:01.411Z,5.90
2023-01-07T19:39:28.874Z,5.90
2023-01-07T19:41:56.916Z,6.20
2023-01-07T19:44:24.066Z,6.10
2023-01-07T19:46:51.421Z,6.00
2023-01-07T19:49:18.853Z,6.10
2023-01-07T19:51:46.103Z,6.10
2023-01-07T19:54:16.185Z,6.00
2023-01-07T19:56:45.245Z,6.20
2023-01-07T19:59:15.057Z,6.10
2023-01-07T20:01:42.569Z,6.10
2023-01-07T20:04:12.368Z,5.90
2023-01-07T20:06:39.767Z,6.00
2023-01-07T20:09:11.550Z,6.20
2023-01-07T20:11:39.645Z,6.10
2023-01-07T20:14:07.870Z,6.20
2023-01-07T20:16:37.055Z,6.10
2023-01-07T20:19:05.353Z,6.10
2023-01-07T20:21:33.692Z,6.10
2023-01-07T20:24:00.737Z,6.00
2023-01-07T20:26:31.250Z,5.90
2023-01-07T20:28:59.788Z,6.00
2023-01-07T20:31:29.212Z,5.90
2023-01-07T20:33:57.579Z,6.00
2023-01-07T20:36:28.841Z,6.00
2023-01-07T20:38:56.768Z,5.90
2023-01-07T20:41:26.417Z,5.90
2023-01-07T20:43:58.650Z,6.00
2023-01-07T20:46:28.616Z,5.90
2023-01-07T20:48:57.160Z,5.80
2023-01-07T20:51:24.555Z,5.90
2023-01-07T20:53:52.547Z,5.90
2023-01-07T20:56:24.090Z,6.00
2023-01-07T20:58:51.226Z,6.10
2023-01-07T21:01:22.051Z,6.20
2023-01-07T21:03:49.667Z,6.40
2023-01-07T21:06:20.146Z,6.40
2023-01-07T21:08:48.661Z,6.50
2023-01-07T21:11:19.661Z,6.60
2023-01-07T21:13:47.627Z,6.60
2023-01-07T21:16:15.765Z,6.60
2023-01-07T21:18:43.074Z,6.60
2023-01-07T21:21:14.226Z,6.70
2023-01-07T21:23:41.878Z,6.70
2023-01-07T21:26:10.118Z,6.60
2023-01-07T21:28:37.252Z,6.70
2023-01-07T21:31:08.897Z,6.70
2023-01-07T21:33:37.692Z,6.60
2023-01-07T21:36:19.164Z,6.70
2023-01-07T21:38:47.536Z,6.80
2023-01-07T21:41:16.674Z,6.80
2023-01-07T21:43:44.484Z,6.80
2023-01-07T21:46:12.008Z,6.90
2023-01-07T21:48:46.517Z,6.90
2023-01-07T21:51:23.341Z,7.00
2023-01-07T21:53:55.905Z,7.00
2023-01-07T21:56:25.539Z,7.10
2023-01-07T21:58:53.130Z,7.20
2023-01-07T22:01:20.477Z,7.30
2023-01-07T22:03:49.441Z,7.30
2023-01-07T22:06:23.723Z,7.40
2023-01-07T22:08:55.649Z,7.50
2023-01-07T22:11:23.166Z,7.80
2023-01-07T22:13:56.428Z,7.80
2023-01-07T22:16:25.379Z,7.80
2023-01-07T22:18:52.758Z,7.80
2023-01-07T22:21:21.378Z,8.20
2023-01-07T22:23:48.971Z,8.60
2023-01-07T22:26:18.631Z,8.80
2023-01-07T22:28:52.917Z,8.90
2023-01-07T22:31:24.161Z,8.90
2023-01-07T22:33:52.173Z,9.00
2023-01-07T22:36:34.294Z,9.00
2023-01-07T22:39:10.322Z,9.10
2023-01-07T22:41:37.895Z,9.20
2023-01-07T22:44:13.359Z,9.20
2023-01-07T22:46:45.757Z,9.20
2023-01-07T22:49:13.625Z,9.30
2023-01-07T22:51:46.967Z,9.20
2023-01-07T22:54:14.952Z,9.20
2023-01-07T22:56:43.488Z,9.30
2023-01-07T22:59:10.565Z,9.40
2023-01-07T23:01:39.903Z,9.40
2023-01-07T23:04:07.121Z,9.40
2023-01-07T23:06:34.188Z,9.40
2023-01-07T23:09:01.492Z,9.40
2023-01-07T23:11:46.850Z,9.30
2023-01-07T23:14:15.622Z,9.20
2023-01-07T23:16:42.716Z,9.30
2023-01-07T23:19:09.896Z,9.10
2023-01-07T23:21:40.871Z,9.10
2023-01-07T23:24:08.209Z,9.00
2023-01-07T23:26:35.680Z,9.00
2023-01-07T23:29:02.881Z,9.00
2023-01-07T23:31:30.518Z,9.00
2023-01-07T23:33:57.546Z,9.00
2023-01-07T23:36:24.630Z,9.00
2023-01-07T23:38:52.357Z,9.10
2023-01-07T23:41:19.718Z,9.00
2023-01-07T23:43:46.797Z,9.00
2023-01-07T23:46:13.926Z,8.90
2023-01-07T23:48:41.058Z,9.00
2023-01-07T23:51:11.786Z,8.90
2023-01-07T23:53:39.552Z,8.80
2023-01-07T23:56:08.323Z,8.80
2023-01-07T23:58:36.627Z,8.70
